sensor_id;sensor_type;location;lat;lon;timestamp;P1;durP1;ratioP1;P2;durP2;ratioP2
48526;SDS011;34317;51.660;5.824;2023-03-04T00:00:20;14.88;;;2.47;;
48526;SDS011;34317;51.660;5.824;2023-03-04T00:02:48;16.00;;;2.53;;
48526;SDS011;34317;51.660;5.824;2023-03-04T00:05:15;14.73;;;2.80;;
48526;SDS011;34317;51.660;5.824;2023-03-04T00:07:42;12.95;;;2.80;;
48526;SDS011;34317;51.660;5.824;2023-03-04T00:10:10;20.13;;;2.97;;
48526;SDS011;34317;51.660;5.824;2023-03-04T00:12:37;11.13;;;2.70;;
48526;SDS011;34317;51.660;5.824;2023-03-04T00:15:05;18.58;;;2.45;;
48526;SDS011;34317;51.660;5.824;2023-03-04T00:17:32;17.17;;;3.38;;
48526;SDS011;34317;51.660;5.824;2023-03-04T00:19:59;16.08;;;2.75;;
48526;SDS011;34317;51.660;5.824;2023-03-04T00:22:26;20.52;;;2.97;;
48526;SDS011;34317;51.660;5.824;2023-03-04T00:24:54;10.70;;;2.30;;
48526;SDS011;34317;51.660;5.824;2023-03-04T00:27:21;13.25;;;2.63;;
48526;SDS011;34317;51.660;5.824;2023-03-04T00:29:48;14.73;;;2.75;;
48526;SDS011;34317;51.660;5.824;2023-03-04T00:32:15;14.98;;;1.90;;
48526;SDS011;34317;51.660;5.824;2023-03-04T00:34:44;12.20;;;2.15;;
48526;SDS011;34317;51.660;5.824;2023-03-04T00:37:11;15.15;;;2.83;;
48526;SDS011;34317;51.660;5.824;2023-03-04T00:39:38;8.50;;;2.08;;
48526;SDS011;34317;51.660;5.824;2023-03-04T00:42:06;13.63;;;2.38;;
48526;SDS011;34317;51.660;5.824;2023-03-04T00:44:33;17.67;;;2.88;;
48526;SDS011;34317;51.660;5.824;2023-03-04T00:47:00;15.30;;;2.80;;
48526;SDS011;34317;51.660;5.824;2023-03-04T00:49:27;11.23;;;2.45;;
48526;SDS011;34317;51.660;5.824;2023-03-04T00:51:54;11.70;;;2.20;;
48526;SDS011;34317;51.660;5.824;2023-03-04T00:54:21;14.68;;;2.28;;
48526;SDS011;34317;51.660;5.824;2023-03-04T00:56:49;10.95;;;2.60;;
48526;SDS011;34317;51.660;5.824;2023-03-04T00:59:16;13.57;;;2.40;;
48526;SDS011;34317;51.660;5.824;2023-03-04T01:01:43;11.38;;;2.28;;
48526;SDS011;34317;51.660;5.824;2023-03-04T01:04:10;13.52;;;2.20;;
48526;SDS011;34317;51.660;5.824;2023-03-04T01:06:37;15.43;;;2.28;;
48526;SDS011;34317;51.660;5.824;2023-03-04T01:09:04;11.93;;;2.08;;
48526;SDS011;34317;51.660;5.824;2023-03-04T01:11:32;14.27;;;2.35;;
48526;SDS011;34317;51.660;5.824;2023-03-04T01:13:59;16.67;;;2.45;;
48526;SDS011;34317;51.660;5.824;2023-03-04T01:16:26;14.52;;;2.25;;
48526;SDS011;34317;51.660;5.824;2023-03-04T01:18:53;15.50;;;2.40;;
48526;SDS011;34317;51.660;5.824;2023-03-04T01:21:20;11.95;;;2.72;;
48526;SDS011;34317;51.660;5.824;2023-03-04T01:23:48;14.30;;;2.05;;
48526;SDS011;34317;51.660;5.824;2023-03-04T01:26:15;9.02;;;1.80;;
48526;SDS011;34317;51.660;5.824;2023-03-04T01:28:42;13.30;;;2.05;;
48526;SDS011;34317;51.660;5.824;2023-03-04T01:31:09;13.25;;;2.65;;
48526;SDS011;34317;51.660;5.824;2023-03-04T01:33:37;11.15;;;1.95;;
48526;SDS011;34317;51.660;5.824;2023-03-04T01:36:04;13.57;;;2.35;;
48526;SDS011;34317;51.660;5.824;2023-03-04T01:38:31;11.80;;;2.58;;
48526;SDS011;34317;51.660;5.824;2023-03-04T01:41:00;16.40;;;2.97;;
48526;SDS011;34317;51.660;5.824;2023-03-04T01:43:28;14.32;;;2.53;;
48526;SDS011;34317;51.660;5.824;2023-03-04T01:45:57;11.52;;;2.13;;
48526;SDS011;34317;51.660;5.824;2023-03-04T01:48:26;8.85;;;2.30;;
48526;SDS011;34317;51.660;5.824;2023-03-04T01:50:57;18.17;;;2.53;;
48526;SDS011;34317;51.660;5.824;2023-03-04T01:53:30;10.23;;;2.60;;
48526;SDS011;34317;51.660;5.824;2023-03-04T02:01:52;8.00;;;2.05;;
48526;SDS011;34317;51.660;5.824;2023-03-04T02:04:27;9.15;;;1.85;;
48526;SDS011;34317;51.660;5.824;2023-03-04T02:06:57;13.02;;;2.15;;
48526;SDS011;34317;51.660;5.824;2023-03-04T02:09:26;9.75;;;2.22;;
48526;SDS011;34317;51.660;5.824;2023-03-04T02:11:54;8.23;;;2.00;;
48526;SDS011;34317;51.660;5.824;2023-03-04T02:14:23;11.40;;;1.88;;
48526;SDS011;34317;51.660;5.824;2023-03-04T02:16:50;11.27;;;1.80;;
48526;SDS011;34317;51.660;5.824;2023-03-04T02:22:05;14.43;;;2.17;;
48526;SDS011;34317;51.660;5.824;2023-03-04T02:24:38;9.07;;;2.05;;
48526;SDS011;34317;51.660;5.824;2023-03-04T02:27:09;9.90;;;2.10;;
48526;SDS011;34317;51.660;5.824;2023-03-04T02:29:37;10.45;;;1.67;;
48526;SDS011;34317;51.660;5.824;2023-03-04T02:32:09;16.70;;;2.47;;
48526;SDS011;34317;51.660;5.824;2023-03-04T02:34:41;10.85;;;2.00;;
48526;SDS011;34317;51.660;5.824;2023-03-04T02:37:13;11.70;;;1.80;;
48526;SDS011;34317;51.660;5.824;2023-03-04T02:39:44;13.05;;;2.28;;
48526;SDS011;34317;51.660;5.824;2023-03-04T02:42:12;17.13;;;2.28;;
48526;SDS011;34317;51.660;5.824;2023-03-04T02:44:42;10.65;;;1.92;;
48526;SDS011;34317;51.660;5.824;2023-03-04T02:47:13;11.77;;;2.03;;
48526;SDS011;34317;51.660;5.824;2023-03-04T02:49:43;11.35;;;1.88;;
48526;SDS011;34317;51.660;5.824;2023-03-04T02:52:13;11.02;;;2.17;;
48526;SDS011;34317;51.660;5.824;2023-03-04T02:54:45;12.70;;;2.10;;
48526;SDS011;34317;51.660;5.824;2023-03-04T02:57:13;10.88;;;2.22;;
48526;SDS011;34317;51.660;5.824;2023-03-04T02:59:45;12.18;;;1.85;;
48526;SDS011;34317;51.660;5.824;2023-03-04T03:02:16;8.45;;;1.90;;
48526;SDS011;34317;51.660;5.824;2023-03-04T03:04:44;7.85;;;2.10;;
48526;SDS011;34317;51.660;5.824;2023-03-04T03:07:14;10.27;;;2.03;;
48526;SDS011;34317;51.660;5.824;2023-03-04T03:09:42;10.65;;;1.85;;
48526;SDS011;34317;51.660;5.824;2023-03-04T03:12:09;11.50;;;1.90;;
48526;SDS011;34317;51.660;5.824;2023-03-04T03:14:37;13.27;;;2.05;;
48526;SDS011;34317;51.660;5.824;2023-03-04T03:17:06;13.18;;;2.40;;
48526;SDS011;34317;51.660;5.824;2023-03-04T03:19:34;10.20;;;2.15;;
48526;SDS011;34317;51.660;5.824;2023-03-04T03:22:03;8.63;;;1.70;;
48526;SDS011;34317;51.660;5.824;2023-03-04T03:24:31;12.93;;;2.15;;
48526;SDS011;34317;51.660;5.824;2023-03-04T03:26:58;13.55;;;2.15;;
48526;SDS011;34317;51.660;5.824;2023-03-04T03:29:25;14.75;;;2.20;;
48526;SDS011;34317;51.660;5.824;2023-03-04T03:31:53;16.48;;;2.03;;
48526;SDS011;34317;51.660;5.824;2023-03-04T03:34:20;6.22;;;1.70;;
48526;SDS011;34317;51.660;5.824;2023-03-04T03:36:48;11.68;;;1.67;;
48526;SDS011;34317;51.660;5.824;2023-03-04T03:39:15;8.95;;;1.88;;
48526;SDS011;34317;51.660;5.824;2023-03-04T03:41:43;10.55;;;1.95;;
48526;SDS011;34317;51.660;5.824;2023-03-04T03:44:10;11.57;;;1.88;;
48526;SDS011;34317;51.660;5.824;2023-03-04T03:46:37;9.45;;;2.08;;
48526;SDS011;34317;51.660;5.824;2023-03-04T03:49:05;9.75;;;1.73;;
48526;SDS011;34317;51.660;5.824;2023-03-04T03:51:32;11.73;;;1.80;;
48526;SDS011;34317;51.660;5.824;2023-03-04T03:53:59;9.52;;;1.95;;
48526;SDS011;34317;51.660;5.824;2023-03-04T03:56:26;9.55;;;1.77;;
48526;SDS011;34317;51.660;5.824;2023-03-04T03:58:53;9.73;;;1.70;;
48526;SDS011;34317;51.660;5.824;2023-03-04T04:01:20;12.50;;;1.98;;
48526;SDS011;34317;51.660;5.824;2023-03-04T04:03:48;7.82;;;1.98;;
48526;SDS011;34317;51.660;5.824;2023-03-04T04:06:15;11.60;;;1.88;;
48526;SDS011;34317;51.660;5.824;2023-03-04T04:08:42;10.82;;;1.70;;
48526;SDS011;34317;51.660;5.824;2023-03-04T04:11:10;10.25;;;2.22;;
48526;SDS011;34317;51.660;5.824;2023-03-04T04:13:37;12.63;;;2.10;;
48526;SDS011;34317;51.660;5.824;2023-03-04T04:16:05;7.85;;;1.42;;
48526;SDS011;34317;51.660;5.824;2023-03-04T04:18:33;14.07;;;1.77;;
48526;SDS011;34317;51.660;5.824;2023-03-04T04:21:00;13.30;;;1.92;;
48526;SDS011;34317;51.660;5.824;2023-03-04T04:23:28;9.52;;;1.85;;
48526;SDS011;34317;51.660;5.824;2023-03-04T04:25:55;8.32;;;1.52;;
48526;SDS011;34317;51.660;5.824;2023-03-04T04:28:23;8.13;;;1.52;;
48526;SDS011;34317;51.660;5.824;2023-03-04T04:30:50;6.40;;;1.42;;
48526;SDS011;34317;51.660;5.824;2023-03-04T04:33:18;7.45;;;1.55;;
48526;SDS011;34317;51.660;5.824;2023-03-04T04:35:45;13.45;;;1.88;;
48526;SDS011;34317;51.660;5.824;2023-03-04T04:38:12;11.07;;;1.63;;
48526;SDS011;34317;51.660;5.824;2023-03-04T04:40:39;12.18;;;1.83;;
48526;SDS011;34317;51.660;5.824;2023-03-04T04:43:07;13.95;;;1.75;;
48526;SDS011;34317;51.660;5.824;2023-03-04T04:45:34;8.82;;;1.45;;
48526;SDS011;34317;51.660;5.824;2023-03-04T04:48:01;10.40;;;1.85;;
48526;SDS011;34317;51.660;5.824;2023-03-04T04:50:29;11.25;;;1.67;;
48526;SDS011;34317;51.660;5.824;2023-03-04T04:52:59;8.85;;;1.60;;
48526;SDS011;34317;51.660;5.824;2023-03-04T04:55:26;10.55;;;2.13;;
48526;SDS011;34317;51.660;5.824;2023-03-04T04:57:54;9.05;;;2.17;;
48526;SDS011;34317;51.660;5.824;2023-03-04T05:00:21;8.60;;;1.38;;
48526;SDS011;34317;51.660;5.824;2023-03-04T05:02:48;6.63;;;1.45;;
48526;SDS011;34317;51.660;5.824;2023-03-04T05:05:15;11.35;;;1.75;;
48526;SDS011;34317;51.660;5.824;2023-03-04T05:07:43;8.52;;;1.58;;
48526;SDS011;34317;51.660;5.824;2023-03-04T05:10:10;12.70;;;2.03;;
48526;SDS011;34317;51.660;5.824;2023-03-04T05:12:37;10.90;;;1.67;;
48526;SDS011;34317;51.660;5.824;2023-03-04T05:15:04;9.27;;;1.40;;
48526;SDS011;34317;51.660;5.824;2023-03-04T05:17:32;10.30;;;1.50;;
48526;SDS011;34317;51.660;5.824;2023-03-04T05:19:59;12.50;;;1.70;;
48526;SDS011;34317;51.660;5.824;2023-03-04T05:22:26;8.30;;;1.55;;
48526;SDS011;34317;51.660;5.824;2023-03-04T05:24:53;9.13;;;1.50;;
48526;SDS011;34317;51.660;5.824;2023-03-04T05:27:21;10.00;;;1.52;;
48526;SDS011;34317;51.660;5.824;2023-03-04T05:29:48;10.00;;;1.30;;
48526;SDS011;34317;51.660;5.824;2023-03-04T05:32:15;7.07;;;1.50;;
48526;SDS011;34317;51.660;5.824;2023-03-04T05:34:42;8.80;;;1.50;;
48526;SDS011;34317;51.660;5.824;2023-03-04T05:37:09;10.00;;;1.45;;
48526;SDS011;34317;51.660;5.824;2023-03-04T05:39:36;9.45;;;1.55;;
48526;SDS011;34317;51.660;5.824;2023-03-04T05:42:04;8.43;;;1.55;;
48526;SDS011;34317;51.660;5.824;2023-03-04T05:44:31;8.98;;;1.20;;
48526;SDS011;34317;51.660;5.824;2023-03-04T05:46:58;7.72;;;0.95;;
48526;SDS011;34317;51.660;5.824;2023-03-04T05:49:25;6.38;;;1.00;;
48526;SDS011;34317;51.660;5.824;2023-03-04T05:51:52;9.88;;;1.08;;
48526;SDS011;34317;51.660;5.824;2023-03-04T05:54:19;5.20;;;0.98;;
48526;SDS011;34317;51.660;5.824;2023-03-04T05:56:47;8.68;;;1.10;;
48526;SDS011;34317;51.660;5.824;2023-03-04T05:59:14;4.15;;;1.15;;
48526;SDS011;34317;51.660;5.824;2023-03-04T06:01:46;6.20;;;1.13;;
48526;SDS011;34317;51.660;5.824;2023-03-04T06:04:14;7.10;;;1.00;;
48526;SDS011;34317;51.660;5.824;2023-03-04T06:06:41;8.70;;;0.93;;
48526;SDS011;34317;51.660;5.824;2023-03-04T06:09:08;9.57;;;1.30;;
48526;SDS011;34317;51.660;5.824;2023-03-04T06:11:35;11.82;;;1.58;;
48526;SDS011;34317;51.660;5.824;2023-03-04T06:14:03;6.28;;;1.20;;
48526;SDS011;34317;51.660;5.824;2023-03-04T06:16:30;7.68;;;1.25;;
48526;SDS011;34317;51.660;5.824;2023-03-04T06:18:57;5.70;;;1.02;;
48526;SDS011;34317;51.660;5.824;2023-03-04T06:21:24;7.47;;;1.40;;
48526;SDS011;34317;51.660;5.824;2023-03-04T06:23:52;6.05;;;1.15;;
48526;SDS011;34317;51.660;5.824;2023-03-04T06:26:19;8.98;;;1.25;;
48526;SDS011;34317;51.660;5.824;2023-03-04T06:28:46;6.13;;;1.17;;
48526;SDS011;34317;51.660;5.824;2023-03-04T06:31:13;5.13;;;1.38;;
48526;SDS011;34317;51.660;5.824;2023-03-04T06:33:41;5.18;;;0.98;;
48526;SDS011;34317;51.660;5.824;2023-03-04T06:36:08;7.57;;;1.38;;
48526;SDS011;34317;51.660;5.824;2023-03-04T06:38:35;4.93;;;1.40;;
48526;SDS011;34317;51.660;5.824;2023-03-04T06:41:09;8.45;;;1.30;;
48526;SDS011;34317;51.660;5.824;2023-03-04T06:43:38;3.63;;;1.20;;
48526;SDS011;34317;51.660;5.824;2023-03-04T06:46:06;8.30;;;1.23;;
48526;SDS011;34317;51.660;5.824;2023-03-04T06:48:33;6.13;;;1.27;;
48526;SDS011;34317;51.660;5.824;2023-03-04T06:51:08;5.70;;;1.10;;
48526;SDS011;34317;51.660;5.824;2023-03-04T06:53:36;5.40;;;1.15;;
48526;SDS011;34317;51.660;5.824;2023-03-04T06:56:04;4.93;;;0.90;;
48526;SDS011;34317;51.660;5.824;2023-03-04T06:58:33;10.25;;;1.70;;
48526;SDS011;34317;51.660;5.824;2023-03-04T07:01:17;8.27;;;1.10;;
48526;SDS011;34317;51.660;5.824;2023-03-04T07:03:46;2.92;;;1.17;;
48526;SDS011;34317;51.660;5.824;2023-03-04T07:06:16;3.97;;;0.88;;
48526;SDS011;34317;51.660;5.824;2023-03-04T07:08:44;6.55;;;1.05;;
48526;SDS011;34317;51.660;5.824;2023-03-04T07:11:13;5.70;;;1.30;;
48526;SDS011;34317;51.660;5.824;2023-03-04T07:13:41;8.32;;;1.38;;
48526;SDS011;34317;51.660;5.824;2023-03-04T07:16:10;5.00;;;1.17;;
48526;SDS011;34317;51.660;5.824;2023-03-04T07:18:39;8.20;;;1.63;;
48526;SDS011;34317;51.660;5.824;2023-03-04T07:21:07;8.50;;;1.20;;
48526;SDS011;34317;51.660;5.824;2023-03-04T07:23:34;4.57;;;1.20;;
48526;SDS011;34317;51.660;5.824;2023-03-04T07:26:02;4.35;;;1.10;;
48526;SDS011;34317;51.660;5.824;2023-03-04T07:28:30;3.95;;;1.35;;
48526;SDS011;34317;51.660;5.824;2023-03-04T07:34:00;7.45;;;1.00;;
48526;SDS011;34317;51.660;5.824;2023-03-04T07:36:29;4.60;;;1.13;;
48526;SDS011;34317;51.660;5.824;2023-03-04T07:38:57;6.32;;;1.25;;
48526;SDS011;34317;51.660;5.824;2023-03-04T07:41:24;3.38;;;1.05;;
48526;SDS011;34317;51.660;5.824;2023-03-04T07:43:54;8.70;;;1.70;;
48526;SDS011;34317;51.660;5.824;2023-03-04T07:46:22;6.15;;;1.20;;
48526;SDS011;34317;51.660;5.824;2023-03-04T07:48:50;8.70;;;1.20;;
48526;SDS011;34317;51.660;5.824;2023-03-04T07:51:18;4.22;;;1.02;;
48526;SDS011;34317;51.660;5.824;2023-03-04T07:53:49;6.22;;;1.27;;
48526;SDS011;34317;51.660;5.824;2023-03-04T07:56:25;6.75;;;1.27;;
48526;SDS011;34317;51.660;5.824;2023-03-04T07:58:54;5.65;;;1.13;;
48526;SDS011;34317;51.660;5.824;2023-03-04T08:01:23;3.58;;;1.00;;
48526;SDS011;34317;51.660;5.824;2023-03-04T08:03:52;5.95;;;1.10;;
48526;SDS011;34317;51.660;5.824;2023-03-04T08:06:20;9.48;;;1.30;;
48526;SDS011;34317;51.660;5.824;2023-03-04T08:08:48;6.82;;;1.08;;
48526;SDS011;34317;51.660;5.824;2023-03-04T08:11:21;8.63;;;1.27;;
48526;SDS011;34317;51.660;5.824;2023-03-04T08:13:48;11.43;;;1.40;;
48526;SDS011;34317;51.660;5.824;2023-03-04T08:16:16;7.57;;;1.48;;
48526;SDS011;34317;51.660;5.824;2023-03-04T08:18:45;6.13;;;1.38;;
48526;SDS011;34317;51.660;5.824;2023-03-04T08:21:15;4.97;;;1.38;;
48526;SDS011;34317;51.660;5.824;2023-03-04T08:23:45;7.00;;;1.30;;
48526;SDS011;34317;51.660;5.824;2023-03-04T08:26:21;4.97;;;1.13;;
48526;SDS011;34317;51.660;5.824;2023-03-04T08:28:50;8.80;;;1.40;;
48526;SDS011;34317;51.660;5.824;2023-03-04T08:31:18;10.10;;;1.65;;
48526;SDS011;34317;51.660;5.824;2023-03-04T08:33:46;5.72;;;1.23;;
48526;SDS011;34317;51.660;5.824;2023-03-04T08:36:14;8.38;;;1.00;;
48526;SDS011;34317;51.660;5.824;2023-03-04T08:38:42;3.85;;;1.08;;
48526;SDS011;34317;51.660;5.824;2023-03-04T08:41:09;4.75;;;1.40;;
48526;SDS011;34317;51.660;5.824;2023-03-04T08:43:36;5.43;;;1.00;;
48526;SDS011;34317;51.660;5.824;2023-03-04T08:46:04;5.28;;;1.10;;
48526;SDS011;34317;51.660;5.824;2023-03-04T08:48:32;4.25;;;0.93;;
48526;SDS011;34317;51.660;5.824;2023-03-04T08:50:59;5.88;;;1.50;;
48526;SDS011;34317;51.660;5.824;2023-03-04T08:53:27;3.85;;;0.90;;
48526;SDS011;34317;51.660;5.824;2023-03-04T08:55:54;5.65;;;0.90;;
48526;SDS011;34317;51.660;5.824;2023-03-04T08:58:21;4.78;;;0.90;;
48526;SDS011;34317;51.660;5.824;2023-03-04T09:00:48;6.75;;;1.17;;
48526;SDS011;34317;51.660;5.824;2023-03-04T09:03:18;6.30;;;1.15;;
48526;SDS011;34317;51.660;5.824;2023-03-04T09:05:46;4.85;;;0.80;;
48526;SDS011;34317;51.660;5.824;2023-03-04T09:08:14;4.18;;;0.90;;
48526;SDS011;34317;51.660;5.824;2023-03-04T09:10:43;5.70;;;1.20;;
48526;SDS011;34317;51.660;5.824;2023-03-04T09:13:11;6.57;;;1.17;;
48526;SDS011;34317;51.660;5.824;2023-03-04T09:15:44;4.75;;;1.20;;
48526;SDS011;34317;51.660;5.824;2023-03-04T09:18:13;4.60;;;1.00;;
48526;SDS011;34317;51.660;5.824;2023-03-04T09:20:41;6.55;;;1.20;;
48526;SDS011;34317;51.660;5.824;2023-03-04T09:23:09;3.28;;;1.05;;
48526;SDS011;34317;51.660;5.824;2023-03-04T09:25:37;4.45;;;1.13;;
48526;SDS011;34317;51.660;5.824;2023-03-04T09:28:05;6.90;;;1.00;;
48526;SDS011;34317;51.660;5.824;2023-03-04T09:30:33;3.58;;;1.00;;
48526;SDS011;34317;51.660;5.824;2023-03-04T09:33:01;6.90;;;1.15;;
48526;SDS011;34317;51.660;5.824;2023-03-04T09:35:29;4.38;;;1.00;;
48526;SDS011;34317;51.660;5.824;2023-03-04T09:37:56;6.25;;;1.10;;
48526;SDS011;34317;51.660;5.824;2023-03-04T09:43:23;2.38;;;0.60;;
48526;SDS011;34317;51.660;5.824;2023-03-04T09:45:56;3.83;;;0.90;;
48526;SDS011;34317;51.660;5.824;2023-03-04T09:48:26;2.15;;;0.77;;
48526;SDS011;34317;51.660;5.824;2023-03-04T09:51:17;5.32;;;1.00;;
48526;SDS011;34317;51.660;5.824;2023-03-04T09:56:38;4.15;;;1.10;;
48526;SDS011;34317;51.660;5.824;2023-03-04T10:01:59;3.60;;;0.85;;
48526;SDS011;34317;51.660;5.824;2023-03-04T10:04:41;2.42;;;0.90;;
48526;SDS011;34317;51.660;5.824;2023-03-04T10:07:21;3.47;;;1.00;;
48526;SDS011;34317;51.660;5.824;2023-03-04T10:09:54;6.60;;;1.10;;
48526;SDS011;34317;51.660;5.824;2023-03-04T10:12:28;3.47;;;1.00;;
48526;SDS011;34317;51.660;5.824;2023-03-04T10:17:55;1.58;;;0.70;;
48526;SDS011;34317;51.660;5.824;2023-03-04T10:20:39;2.83;;;0.90;;
48526;SDS011;34317;51.660;5.824;2023-03-04T10:23:17;6.13;;;1.02;;
48526;SDS011;34317;51.660;5.824;2023-03-04T10:25:47;2.78;;;0.90;;
48526;SDS011;34317;51.660;5.824;2023-03-04T10:28:23;4.10;;;1.20;;
48526;SDS011;34317;51.660;5.824;2023-03-04T10:33:26;3.58;;;1.15;;
48526;SDS011;34317;51.660;5.824;2023-03-04T10:36:04;3.67;;;1.00;;
48526;SDS011;34317;51.660;5.824;2023-03-04T10:39:12;4.53;;;1.10;;
48526;SDS011;34317;51.660;5.824;2023-03-04T10:41:45;1.63;;;0.90;;
48526;SDS011;34317;51.660;5.824;2023-03-04T10:44:21;3.67;;;0.98;;
48526;SDS011;34317;51.660;5.824;2023-03-04T10:46:50;6.30;;;1.00;;
48526;SDS011;34317;51.660;5.824;2023-03-04T10:49:21;4.72;;;1.00;;
48526;SDS011;34317;51.660;5.824;2023-03-04T10:52:33;3.05;;;1.10;;
48526;SDS011;34317;51.660;5.824;2023-03-04T10:54:49;6.03;;;0.90;;
48526;SDS011;34317;51.660;5.824;2023-03-04T10:59:56;4.05;;;1.00;;
48526;SDS011;34317;51.660;5.824;2023-03-04T11:02:31;3.58;;;1.00;;
48526;SDS011;34317;51.660;5.824;2023-03-04T11:07:49;4.20;;;0.90;;
48526;SDS011;34317;51.660;5.824;2023-03-04T11:10:38;3.90;;;1.10;;
48526;SDS011;34317;51.660;5.824;2023-03-04T11:15:53;3.05;;;0.80;;
48526;SDS011;34317;51.660;5.824;2023-03-04T11:18:41;3.15;;;1.10;;
48526;SDS011;34317;51.660;5.824;2023-03-04T11:21:22;3.83;;;1.20;;
48526;SDS011;34317;51.660;5.824;2023-03-04T11:26:35;3.40;;;1.10;;
48526;SDS011;34317;51.660;5.824;2023-03-04T11:29:12;2.72;;;1.02;;
48526;SDS011;34317;51.660;5.824;2023-03-04T11:40:11;1.27;;;0.95;;
48526;SDS011;34317;51.660;5.824;2023-03-04T11:49:10;2.42;;;0.90;;
48526;SDS011;34317;51.660;5.824;2023-03-04T11:59:51;2.38;;;0.80;;
48526;SDS011;34317;51.660;5.824;2023-03-04T12:08:31;2.63;;;0.80;;
48526;SDS011;34317;51.660;5.824;2023-03-04T12:14:10;1.27;;;0.73;;
48526;SDS011;34317;51.660;5.824;2023-03-04T12:20:02;1.27;;;0.52;;
48526;SDS011;34317;51.660;5.824;2023-03-04T12:25:42;1.05;;;0.70;;
48526;SDS011;34317;51.660;5.824;2023-03-04T12:28:23;1.30;;;0.75;;
48526;SDS011;34317;51.660;5.824;2023-03-04T12:31:09;1.67;;;0.90;;
48526;SDS011;34317;51.660;5.824;2023-03-04T12:36:47;1.10;;;0.60;;
48526;SDS011;34317;51.660;5.824;2023-03-04T12:45:05;2.70;;;0.88;;
48526;SDS011;34317;51.660;5.824;2023-03-04T12:56:36;2.03;;;1.10;;
48526;SDS011;34317;51.660;5.824;2023-03-04T12:59:12;2.45;;;0.90;;
48526;SDS011;34317;51.660;5.824;2023-03-04T13:01:52;2.55;;;1.08;;
48526;SDS011;34317;51.660;5.824;2023-03-04T13:10:29;2.95;;;0.80;;
48526;SDS011;34317;51.660;5.824;2023-03-04T13:12:58;2.13;;;0.98;;
48526;SDS011;34317;51.660;5.824;2023-03-04T13:21:04;1.52;;;0.75;;
48526;SDS011;34317;51.660;5.824;2023-03-04T13:23:33;1.80;;;0.80;;
48526;SDS011;34317;51.660;5.824;2023-03-04T13:28:28;1.65;;;0.80;;
48526;SDS011;34317;51.660;5.824;2023-03-04T13:36:00;2.08;;;0.75;;
48526;SDS011;34317;51.660;5.824;2023-03-04T13:38:33;0.73;;;0.40;;
48526;SDS011;34317;51.660;5.824;2023-03-04T13:43:38;1.40;;;0.40;;
48526;SDS011;34317;51.660;5.824;2023-03-04T13:46:35;1.60;;;0.70;;
48526;SDS011;34317;51.660;5.824;2023-03-04T13:49:07;1.10;;;0.57;;
48526;SDS011;34317;51.660;5.824;2023-03-04T13:51:45;1.52;;;0.60;;
48526;SDS011;34317;51.660;5.824;2023-03-04T13:59:27;1.90;;;0.85;;
48526;SDS011;34317;51.660;5.824;2023-03-04T14:04:41;2.58;;;0.90;;
48526;SDS011;34317;51.660;5.824;2023-03-04T14:12:50;9.13;;;1.17;;
48526;SDS011;34317;51.660;5.824;2023-03-04T14:15:21;4.90;;;0.93;;
48526;SDS011;34317;51.660;5.824;2023-03-04T14:17:55;7.65;;;1.38;;
48526;SDS011;34317;51.660;5.824;2023-03-04T14:20:27;6.43;;;1.00;;
48526;SDS011;34317;51.660;5.824;2023-03-04T14:22:57;3.70;;;1.10;;
48526;SDS011;34317;51.660;5.824;2023-03-04T14:28:29;4.05;;;0.93;;
48526;SDS011;34317;51.660;5.824;2023-03-04T14:30:52;3.75;;;0.85;;
48526;SDS011;34317;51.660;5.824;2023-03-04T14:33:25;4.28;;;0.80;;
48526;SDS011;34317;51.660;5.824;2023-03-04T14:35:56;4.72;;;1.10;;
48526;SDS011;34317;51.660;5.824;2023-03-04T14:38:28;7.47;;;1.10;;
48526;SDS011;34317;51.660;5.824;2023-03-04T14:41:09;4.38;;;1.27;;
48526;SDS011;34317;51.660;5.824;2023-03-04T14:43:39;4.28;;;1.20;;
48526;SDS011;34317;51.660;5.824;2023-03-04T14:46:12;6.47;;;1.25;;
48526;SDS011;34317;51.660;5.824;2023-03-04T14:48:46;5.80;;;1.20;;
48526;SDS011;34317;51.660;5.824;2023-03-04T14:51:27;5.07;;;1.10;;
48526;SDS011;34317;51.660;5.824;2023-03-04T14:53:56;6.43;;;1.10;;
48526;SDS011;34317;51.660;5.824;2023-03-04T14:56:27;5.53;;;1.13;;
48526;SDS011;34317;51.660;5.824;2023-03-04T14:58:58;6.05;;;1.17;;
48526;SDS011;34317;51.660;5.824;2023-03-04T15:01:29;6.32;;;1.05;;
48526;SDS011;34317;51.660;5.824;2023-03-04T15:04:05;5.55;;;1.23;;
48526;SDS011;34317;51.660;5.824;2023-03-04T15:06:38;4.75;;;1.17;;
48526;SDS011;34317;51.660;5.824;2023-03-04T15:09:19;7.18;;;1.20;;
48526;SDS011;34317;51.660;5.824;2023-03-04T15:11:59;6.13;;;1.10;;
48526;SDS011;34317;51.660;5.824;2023-03-04T15:14:48;6.05;;;1.55;;
48526;SDS011;34317;51.660;5.824;2023-03-04T15:17:32;5.15;;;1.10;;
48526;SDS011;34317;51.660;5.824;2023-03-04T15:25:14;2.58;;;0.93;;
48526;SDS011;34317;51.660;5.824;2023-03-04T15:27:42;1.98;;;0.70;;
48526;SDS011;34317;51.660;5.824;2023-03-04T15:30:14;2.25;;;0.70;;
48526;SDS011;34317;51.660;5.824;2023-03-04T15:32:44;2.05;;;0.65;;
48526;SDS011;34317;51.660;5.824;2023-03-04T15:35:16;2.60;;;0.73;;
48526;SDS011;34317;51.660;5.824;2023-03-04T15:37:44;3.67;;;0.60;;
48526;SDS011;34317;51.660;5.824;2023-03-04T15:40:23;2.25;;;0.77;;
48526;SDS011;34317;51.660;5.824;2023-03-04T15:42:57;2.80;;;0.75;;
48526;SDS011;34317;51.660;5.824;2023-03-04T15:47:57;5.72;;;1.00;;
48526;SDS011;34317;51.660;5.824;2023-03-04T15:50:27;3.53;;;1.10;;
48526;SDS011;34317;51.660;5.824;2023-03-04T15:52:59;3.92;;;0.90;;
48526;SDS011;34317;51.660;5.824;2023-03-04T15:55:29;8.18;;;1.33;;
48526;SDS011;34317;51.660;5.824;2023-03-04T15:57:58;4.88;;;1.15;;
48526;SDS011;34317;51.660;5.824;2023-03-04T16:00:29;4.47;;;0.88;;
48526;SDS011;34317;51.660;5.824;2023-03-04T16:02:57;6.40;;;0.95;;
48526;SDS011;34317;51.660;5.824;2023-03-04T16:05:25;4.65;;;0.85;;
48526;SDS011;34317;51.660;5.824;2023-03-04T16:07:52;4.03;;;0.88;;
48526;SDS011;34317;51.660;5.824;2023-03-04T16:10:21;2.85;;;0.98;;
48526;SDS011;34317;51.660;5.824;2023-03-04T16:12:52;3.72;;;1.00;;
48526;SDS011;34317;51.660;5.824;2023-03-04T16:15:27;2.40;;;0.90;;
48526;SDS011;34317;51.660;5.824;2023-03-04T16:17:55;3.03;;;0.60;;
48526;SDS011;34317;51.660;5.824;2023-03-04T16:20:24;6.03;;;0.80;;
48526;SDS011;34317;51.660;5.824;2023-03-04T16:22:56;3.78;;;0.80;;
48526;SDS011;34317;51.660;5.824;2023-03-04T16:25:25;3.22;;;0.80;;
48526;SDS011;34317;51.660;5.824;2023-03-04T16:27:54;2.83;;;0.63;;
48526;SDS011;34317;51.660;5.824;2023-03-04T16:30:23;2.65;;;0.65;;
48526;SDS011;34317;51.660;5.824;2023-03-04T16:32:52;3.28;;;0.80;;
48526;SDS011;34317;51.660;5.824;2023-03-04T16:35:20;2.83;;;1.00;;
48526;SDS011;34317;51.660;5.824;2023-03-04T16:37:51;2.63;;;1.00;;
48526;SDS011;34317;51.660;5.824;2023-03-04T16:40:19;4.88;;;1.00;;
48526;SDS011;34317;51.660;5.824;2023-03-04T16:42:51;2.63;;;0.75;;
48526;SDS011;34317;51.660;5.824;2023-03-04T16:45:18;4.00;;;1.00;;
48526;SDS011;34317;51.660;5.824;2023-03-04T16:47:48;2.10;;;0.70;;
48526;SDS011;34317;51.660;5.824;2023-03-04T16:50:17;1.95;;;0.85;;
48526;SDS011;34317;51.660;5.824;2023-03-04T16:52:53;4.32;;;1.00;;
48526;SDS011;34317;51.660;5.824;2023-03-04T16:55:25;4.75;;;0.80;;
48526;SDS011;34317;51.660;5.824;2023-03-04T16:57:54;2.85;;;0.80;;
48526;SDS011;34317;51.660;5.824;2023-03-04T17:00:24;4.47;;;0.80;;
48526;SDS011;34317;51.660;5.824;2023-03-04T17:02:57;3.65;;;0.90;;
48526;SDS011;34317;51.660;5.824;2023-03-04T17:05:30;5.18;;;1.00;;
48526;SDS011;34317;51.660;5.824;2023-03-04T17:07:59;1.92;;;0.95;;
48526;SDS011;34317;51.660;5.824;2023-03-04T17:10:26;3.40;;;1.00;;
48526;SDS011;34317;51.660;5.824;2023-03-04T17:12:53;5.72;;;0.80;;
48526;SDS011;34317;51.660;5.824;2023-03-04T17:15:21;3.78;;;0.70;;
48526;SDS011;34317;51.660;5.824;2023-03-04T17:17:48;4.55;;;0.90;;